Latest Weather Observations for Forbes

IDN60801

Issued at 4:32 pm EST Friday 28 August 2015 (issued every 30 minutes, with the page automatically refreshed every 10 minutes)

About weather observations | Map of weather stations | Latest weather observations for NSW | Other Formats
Station Details ID: 065103 Name: FORBES AIRPORT AWS Lat: -33.36 Lon: 147.92 Height: 230.4 m
Data from the previous 72 hours. | See also: Recent months at Forbes
Date/Time
EST
Temp
°C
App
Temp
°C
Dew
Point
Rel
Hum
%
Delta-T
°C
Wind Press
QNH
hPa
Press
MSL
hPa
Rain
since 9 am
mm
Dir
 
Spd
km/h
Gust
km/h
Spd
kts
Gust
kts
28/04:30pm 12.1 9.2 8.2 77 1.9 WSW 13 15 7 8 1023.1 1023.4 0.0
28/04:00pm 12.4 10.0 8.7 78 1.9 SW 11 17 6 9 1023.0 1023.3 0.0
28/03:30pm 12.2 9.5 8.9 80 1.7 SW 13 19 7 10 1022.9 1023.2 0.0
28/03:00pm 11.5 8.2 8.2 80 1.6 WSW 15 19 8 10 1022.9 1023.2 0.0
28/02:30pm 12.1 10.2 8.9 81 1.6 W 9 13 5 7 1022.7 1023.0 0.0
28/02:00pm 11.5 9.1 8.7 83 1.4 WSW 11 15 6 8 1022.9 1023.2 0.0
28/01:30pm 11.6 8.8 8.5 81 1.5 WSW 13 17 7 9 1023.0 1023.3 0.0
28/01:00pm 11.4 9.0 8.6 83 1.4 WSW 11 17 6 9 1023.1 1023.4 0.0
28/12:30pm 11.3 8.4 8.2 81 1.5 W 13 19 7 10 1023.6 1023.9 0.0
28/12:00pm 11.7 8.9 8.4 80 1.6 W 13 20 7 11 1023.8 1024.1 0.0
28/11:30am 11.1 8.7 8.7 85 1.2 WSW 11 17 6 9 1024.0 1024.3 0.0
28/11:00am 11.3 9.2 8.3 82 1.5 SW 9 17 5 9 1024.0 1024.3 0.0
28/10:30am 10.6 7.8 8.7 88 0.9 WSW 13 19 7 10 1024.1 1024.4 0.0
28/10:00am 10.1 6.9 8.4 89 0.8 SW 15 20 8 11 1024.0 1024.3 0.0
28/09:30am 9.5 6.8 8.9 96 0.3 WSW 13 19 7 10 1023.9 1024.2 0.0
28/09:00am 8.7 5.5 8.4 98 0.1 WSW 15 20 8 11 1023.8 1024.1 5.8
28/08:30am 8.4 5.9 8.1 98 0.1 W 11 17 6 9 1023.6 1023.9 5.8
28/08:00am 7.7 5.4 7.6 99 0.0 W 9 15 5 8 1023.3 1023.6 5.8
28/07:30am 6.3 3.3 6.2 99 0.0 NW 11 15 6 8 1022.9 1023.2 5.8
28/07:00am 6.0 3.4 5.9 99 0.0 WNW 9 11 5 6 1022.8 1023.1 5.8
28/06:30am 5.6 2.9 5.5 99 0.0 NW 9 11 5 6 1022.3 1022.6 5.8
28/06:00am 5.2 2.4 5.1 99 0.0 NW 9 11 5 6 1022.1 1022.4 5.8
28/05:30am 4.9 1.3 4.8 99 0.0 NNW 13 13 7 7 1021.8 1022.1 5.8
28/05:00am 3.4 0.2 3.3 99 0.0 NNW 9 11 5 6 1021.5 1021.8 5.8
28/04:30am 4.4 0.7 4.3 99 0.0 NNW 13 15 7 8 1021.1 1021.4 5.8
28/04:00am 4.1 0.7 4.0 99 0.0 NNW 11 13 6 7 1021.1 1021.4 5.8
28/03:30am 3.9 1.4 3.8 99 0.0 NNW 6 7 3 4 1021.1 1021.4 5.8
28/03:00am 4.9 2.6 4.8 99 0.0 NW 6 6 3 3 1021.2 1021.5 5.8
28/02:30am 5.2 3.3 5.1 99 0.0 N 4 7 2 4 1021.5 1021.8 5.8
28/02:00am 6.0 5.1 5.9 99 0.0 CALM 0 0 0 0 1021.6 1021.9 5.8
28/01:30am 5.8 3.5 5.7 99 0.0 NNW 7 9 4 5 1021.7 1022.0 5.8
28/01:00am 6.4 4.4 6.3 99 0.0 N 6 9 3 5 1021.8 1022.1 5.8
28/12:30am 7.0 4.2 6.9 99 0.0 NNW 11 13 6 7 1021.9 1022.2 5.8
28/12:00am 6.6 3.7 6.5 99 0.0 N 11 13 6 7 1021.9 1022.2 5.8
 
Date/Time
EST
Temp
°C
App
Temp
°C
Dew
Point
Rel
Hum
%
Delta-T
°C
Wind Press
QNH
hPa
Press
MSL
hPa
Rain
since 9 am
mm
Dir
 
Spd
km/h
Gust
km/h
Spd
kts
Gust
kts
27/11:30pm 5.7 3.0 5.6 99 0.0 NW 9 9 5 5 1022.0 1022.3 5.8
27/11:00pm 6.4 3.5 6.3 99 0.0 NNW 11 13 6 7 1022.0 1022.3 5.8
27/10:30pm 7.3 6.6 6.9 97 0.2 CALM 0 0 0 0 1022.2 1022.5 5.8
27/10:00pm 7.8 6.1 7.5 98 0.1 N 6 7 3 4 1022.1 1022.4 5.8
27/09:30pm 7.7 7.1 7.6 99 0.0 CALM 0 0 0 0 1022.0 1022.3 5.8
27/09:00pm 7.5 6.8 6.8 95 0.3 CALM 0 0 0 0 1021.9 1022.2 5.8
27/08:30pm 7.5 6.3 6.6 94 0.4 WSW 2 9 1 5 1021.8 1022.1 5.8
27/08:00pm 7.9 5.4 6.4 90 0.7 WSW 9 11 5 6 1021.6 1021.9 5.8
27/07:30pm 8.6 6.2 6.9 89 0.8 WSW 9 13 5 7 1021.3 1021.6 5.8
27/07:00pm 9.3 6.3 7.7 90 0.8 WSW 13 17 7 9 1021.1 1021.4 5.8
27/06:30pm 10.1 7.2 8.2 88 0.9 W 13 19 7 10 1020.6 1020.9 5.8
27/06:00pm 9.8 6.8 7.7 87 1.0 W 13 17 7 9 1020.2 1020.5 5.8
27/05:30pm 10.5 8.0 8.1 85 1.2 W 11 15 6 8 1019.7 1020.0 5.8
27/05:00pm 12.1 9.3 8.6 79 1.8 W 13 19 7 10 1019.6 1019.9 5.8
27/04:30pm 12.5 8.9 8.4 76 2.1 W 17 24 9 13 1019.4 1019.7 5.8
27/04:00pm 12.0 10.1 9.0 82 1.5 SW 9 13 5 7 1019.2 1019.5 5.8
27/03:30pm 10.2 6.4 9.0 92 0.6 SW 19 28 10 15 1019.2 1019.5 5.8
27/03:18pm 9.1 4.1 7.9 92 0.6 SW 24 37 13 20 1019.4 1019.7 5.6
27/03:00pm 10.1 2.0 6.8 80 1.6 W 39 59 21 32 1019.7 1020.0 4.8
27/02:55pm 10.6 3.7 6.6 76 1.9 W 32 59 17 32 1019.8 1020.1 4.8
27/02:53pm 11.0 4.9 6.4 73 2.2 W 28 59 15 32 1019.7 1020.0 4.8
27/02:30pm 13.7 10.6 10.3 80 1.8 WNW 17 24 9 13 1018.9 1019.1 4.8
27/02:00pm 13.1 11.7 10.8 86 1.2 WNW 9 17 5 9 1019.1 1019.4 4.8
27/01:30pm 11.7 10.9 11.1 96 0.3 NW 6 9 3 5 1019.3 1019.6 4.8
27/01:00pm 11.0 9.6 10.8 99 0.1 NW 9 13 5 7 1019.8 1020.1 4.8
27/12:30pm 10.4 8.0 10.2 99 0.1 WNW 13 19 7 10 1020.5 1020.8 2.6
27/12:00pm 10.6 5.0 8.9 89 0.8 SW 28 39 15 21 1020.0 1020.3 0.8
27/11:50am 12.1 7.6 8.6 79 1.8 WSW 22 33 12 18 1020.1 1020.4 0.0
27/11:30am 14.5 12.8 11.3 81 1.7 WNW 11 15 6 8 1020.1 1020.4 0.0
27/11:00am 14.4 13.0 12.1 86 1.3 NW 11 17 6 9 1020.4 1020.7 0.0
27/10:30am 13.1 11.5 11.7 91 0.8 NW 11 15 6 8 1020.9 1021.2 0.0
27/10:00am 12.7 11.6 11.9 95 0.4 NW 9 15 5 8 1021.0 1021.3 0.0
27/09:30am 12.1 11.8 11.5 96 0.3 WNW 4 9 2 5 1021.1 1021.4 0.0
27/09:00am 11.7 10.8 11.5 99 0.1 WNW 7 11 4 6 1021.3 1021.6 0.0
27/08:30am 11.4 10.1 11.2 99 0.1 WNW 9 11 5 6 1021.5 1021.8 0.0
27/08:00am 10.9 9.4 10.7 99 0.1 NNW 9 13 5 7 1021.3 1021.6 0.0
27/07:30am 10.7 9.6 10.5 99 0.1 NNW 7 13 4 7 1020.9 1021.2 0.0
27/07:00am 10.8 9.7 10.6 99 0.1 NW 7 11 4 6 1020.5 1020.8 0.0
27/06:30am 10.9 9.4 10.7 99 0.1 WNW 9 15 5 8 1020.5 1020.8 0.0
27/06:00am 11.0 10.1 10.8 99 0.1 NW 6 9 3 5 1020.3 1020.6 0.0
27/05:30am 10.9 10.8 10.7 99 0.1 W 2 9 1 5 1020.1 1020.4 0.0
27/05:00am 10.9 11.1 10.7 99 0.1 CALM 0 0 0 0 1019.1 1019.4 0.0
27/04:30am 11.0 10.1 10.8 99 0.1 W 6 9 3 5 1019.5 1019.8 0.0
27/04:00am 11.0 9.9 10.8 99 0.1 W 7 9 4 5 1019.9 1020.2 0.0
27/03:30am 11.0 9.9 10.8 99 0.1 SSW 7 11 4 6 1019.8 1020.1 0.0
27/03:00am 11.2 10.2 11.0 99 0.1 SSW 7 9 4 5 1019.6 1019.9 0.0
27/02:30am 11.3 10.0 11.1 99 0.1 SW 9 11 5 6 1020.1 1020.4 0.0
27/02:00am 11.4 10.5 11.2 99 0.1 SW 7 11 4 6 1020.1 1020.4 0.0
27/01:30am 11.5 9.8 11.3 99 0.1 SW 11 15 6 8 1020.2 1020.5 0.0
27/01:00am 11.9 11.1 11.7 99 0.1 WSW 7 11 4 6 1020.5 1020.8 0.0
27/12:30am 11.9 11.3 11.7 99 0.1 SSW 6 7 3 4 1020.6 1020.9 0.0
27/12:00am 11.9 10.7 11.7 99 0.1 SW 9 13 5 7 1020.9 1021.2 0.0
 
Date/Time
EST
Temp
°C
App
Temp
°C
Dew
Point
Rel
Hum
%
Delta-T
°C
Wind Press
QNH
hPa
Press
MSL
hPa
Rain
since 9 am
mm
Dir
 
Spd
km/h
Gust
km/h
Spd
kts
Gust
kts
26/11:30pm 12.2 11.7 12.0 99 0.1 SW 6 7 3 4 1021.1 1021.4 0.0
26/11:00pm 12.2 11.5 12.0 99 0.1 SW 7 9 4 5 1021.5 1021.8 0.0
26/10:30pm 12.3 11.6 12.0 98 0.2 SW 7 11 4 6 1021.7 1022.0 0.0
26/10:00pm 12.5 11.4 12.0 97 0.3 SSW 9 13 5 7 1021.7 1022.0 0.0
26/09:30pm 12.6 11.8 11.8 95 0.4 SW 7 11 4 6 1022.0 1022.3 0.0
26/09:00pm 13.2 12.1 12.1 93 0.6 S 9 11 5 6 1022.0 1022.3 0.0
26/08:30pm 13.7 12.2 11.9 89 1.0 SSW 11 15 6 8 1022.1 1022.4 0.0
26/08:00pm 13.4 12.9 12.1 92 0.7 WSW 6 7 3 4 1021.9 1022.2 0.0
26/07:30pm 13.4 12.3 11.8 90 0.9 WSW 9 11 5 6 1021.6 1021.9 0.0
26/07:00pm 13.4 12.1 11.3 87 1.1 WSW 9 9 5 5 1021.5 1021.8 0.0
26/06:30pm 14.0 12.9 11.9 87 1.1 SW 9 11 5 6 1021.3 1021.6 0.0
26/06:00pm 14.2 13.6 12.4 89 1.0 W 7 9 4 5 1021.1 1021.4 0.0
26/05:30pm 14.6 14.1 11.9 84 1.5 SW 6 9 3 5 1020.8 1021.1 0.0
26/05:00pm 14.9 13.7 11.7 81 1.7 WSW 9 13 5 7 1020.6 1020.9 0.0
26/04:30pm 15.1 13.8 11.3 78 2.1 WSW 9 11 5 6 1020.7 1021.0 0.0
26/04:00pm 15.5 13.3 10.7 73 2.6 SSW 13 19 7 10 1020.2 1020.5 0.0
26/03:30pm 16.0 13.5 11.0 72 2.7 SSW 15 22 8 12 1020.1 1020.4 0.0
26/03:00pm 15.8 14.0 10.8 72 2.7 SW 11 17 6 9 1020.3 1020.6 0.0
26/02:30pm 16.0 14.3 11.2 73 2.6 SSW 11 15 6 8 1020.3 1020.6 0.0
26/02:00pm 15.9 14.9 11.1 73 2.6 SSW 7 15 4 8 1020.7 1021.0 0.0
26/01:30pm 15.6 14.3 11.2 75 2.4 SW 9 15 5 8 1020.8 1021.1 0.0
26/01:00pm 14.9 13.4 10.5 75 2.3 WSW 9 15 5 8 1021.2 1021.5 0.0
26/12:30pm 14.5 13.3 10.3 76 2.2 WSW 7 13 4 7 1021.7 1022.0 0.0
26/12:00pm 14.3 12.6 9.9 75 2.3 S 9 13 5 7 1022.3 1022.6 0.0
26/11:30am 14.5 12.0 9.7 73 2.5 SSE 13 22 7 12 1022.6 1022.9 0.0
26/11:00am 13.8 10.4 9.0 73 2.5 S 17 24 9 13 1022.8 1023.1 0.0
26/10:30am 13.6 11.0 9.3 75 2.2 S 13 20 7 11 1022.8 1023.1 0.0
26/10:00am 13.1 9.3 9.2 77 2.0 SSW 19 24 10 13 1023.0 1023.3 0.0
26/09:30am 12.5 8.6 9.3 81 1.6 S 20 28 11 15 1022.3 1022.6 0.0
26/09:00am 11.7 7.7 9.1 84 1.3 S 20 28 11 15 1022.5 1022.7 0.6
26/08:30am 10.7 5.8 8.6 87 1.0 S 24 32 13 17 1022.3 1022.6 0.6
26/08:00am 9.9 5.8 8.8 93 0.5 S 20 24 11 13 1022.5 1022.7 0.6
26/07:30am 8.8 5.5 8.2 96 0.3 S 15 20 8 11 1022.5 1022.7 0.6
26/07:00am 8.0 5.4 7.9 99 0.0 SSW 11 17 6 9 1022.2 1022.5 0.6
26/06:30am 8.0 4.7 7.9 99 0.0 S 15 20 8 11 1021.5 1021.8 0.6
26/06:00am 8.4 4.7 8.1 98 0.1 SSW 17 20 9 11 1021.7 1022.0 0.6
26/05:30am 8.5 5.6 8.2 98 0.1 SW 13 17 7 9 1021.6 1021.9 0.6
26/05:00am 8.6 5.7 8.2 97 0.2 SW 13 17 7 9 1021.5 1021.8 0.6
26/04:30am 8.7 5.9 8.4 98 0.1 SW 13 17 7 9 1021.5 1021.8 0.6
26/04:00am 8.6 6.1 8.3 98 0.1 SW 11 13 6 7 1021.5 1021.8 0.6
26/03:30am 8.8 6.8 8.5 98 0.1 WSW 9 13 5 7 1021.4 1021.7 0.6
26/03:00am 8.8 6.0 8.5 98 0.1 SSW 13 20 7 11 1021.2 1021.5 0.6
26/02:30am 8.7 5.5 8.4 98 0.1 SSW 15 19 8 10 1021.3 1021.6 0.6
26/02:00am 8.8 5.6 8.5 98 0.1 SSW 15 19 8 10 1021.7 1022.0 0.6
26/01:30am 9.1 5.7 9.0 99 0.0 SSW 17 20 9 11 1022.0 1022.3 0.6
26/01:00am 9.1 5.7 9.0 99 0.0 SSW 17 22 9 12 1022.0 1022.3 0.6
26/12:30am 9.0 5.5 8.9 99 0.0 SSW 17 22 9 12 1021.9 1022.2 0.6
26/12:00am 9.1 6.0 9.0 99 0.0 SSW 15 19 8 10 1021.9 1022.2 0.6
 
Date/Time
EST
Temp
°C
App
Temp
°C
Dew
Point
Rel
Hum
%
Delta-T
°C
Wind Press
QNH
hPa
Press
MSL
hPa
Rain
since 9 am
mm
Dir
 
Spd
km/h
Gust
km/h
Spd
kts
Gust
kts
25/11:30pm 9.1 6.0 9.0 99 0.0 SSW 15 20 8 11 1021.8 1022.1 0.6
25/11:00pm 9.4 6.0 9.3 99 0.0 SSW 17 20 9 11 1021.7 1022.0 0.6
25/10:30pm 9.7 6.8 9.6 99 0.1 SSW 15 19 8 10 1021.9 1022.2 0.6
25/10:00pm 9.9 7.4 9.6 98 0.2 SSW 13 19 7 10 1021.9 1022.2 0.6
25/09:30pm 10.1 7.6 9.6 97 0.3 S 13 17 7 9 1021.8 1022.1 0.6
25/09:00pm 10.0 7.5 8.3 89 0.8 S 11 13 6 7 1021.8 1022.1 0.6
25/08:30pm 11.2 7.4 7.7 79 1.7 SSE 17 22 9 12 1021.5 1021.8 0.6
25/08:00pm 11.7 6.3 7.8 77 1.9 SSE 26 43 14 23 1021.2 1021.5 0.6
25/07:30pm 11.6 6.6 8.1 79 1.7 SSE 24 35 13 19 1021.0 1021.3 0.6
25/07:00pm 11.8 7.4 8.8 82 1.5 SSE 22 33 12 18 1020.6 1020.9 0.6
25/06:30pm 11.9 8.6 9.6 86 1.2 S 17 22 9 12 1020.3 1020.6 0.6
25/06:00pm 12.4 9.4 10.6 89 0.9 S 17 28 9 15 1019.9 1020.2 0.6
25/05:30pm 12.3 11.4 11.4 94 0.5 SSE 7 9 4 5 1019.4 1019.7 0.6
25/05:00pm 12.1 10.0 11.2 94 0.5 SSE 13 19 7 10 1018.9 1019.1 0.6

Other Formats:

Comma delimited format used in spreadsheet applications
http://www.bom.gov.au/fwo/IDN60801/IDN60801.94715.axf

JavaScript Object Notation format (JSON) in row-major order
http://www.bom.gov.au/fwo/IDN60801/IDN60801.94715.json